Time;durP1;ratioP1;P1;durP2;ratioP2;P2;SDS_P1;SDS_P2;PMS_P1;PMS_P2;Temp;Humidity;BMP_temperature;BMP_pressure;BME280_temperature;BME280_humidity;BME280_pressure;Samples;Min_cycle;Max_cycle;Signal;HPM_P1;HPM_P2
2021/12/03 00:00:40;;;;;;;4.80;2.40;;;;;;;18.35;43.51;100850.44;5038095;28;20076;-70
2021/12/03 00:03:07;;;;;;;3.60;2.33;;;;;;;18.33;43.54;100852.41;5036659;28;20076;-70
2021/12/03 00:05:34;;;;;;;3.10;1.92;;;;;;;18.35;43.54;100843.34;5037725;28;20039;-70
2021/12/03 00:08:00;;;;;;;3.72;2.08;;;;;;;18.25;43.56;100837.41;5051595;28;20144;-70
2021/12/03 00:10:26;;;;;;;3.88;2.17;;;;;;;18.25;43.64;100845.34;5035777;28;20041;-70
2021/12/03 00:12:54;;;;;;;3.80;2.13;;;;;;;18.23;43.66;100847.31;5038667;28;20174;-70
2021/12/03 00:15:23;;;;;;;2.22;1.80;;;;;;;18.16;43.83;100841.09;5037690;28;20049;-70
2021/12/03 00:17:50;;;;;;;2.67;2.00;;;;;;;18.18;43.81;100849.63;5034534;28;20115;-70
2021/12/03 00:20:16;;;;;;;2.70;1.83;;;;;;;18.16;43.76;100850.81;5035978;28;20041;-70
2021/12/03 00:22:44;;;;;;;2.15;1.77;;;;;;;18.14;43.68;100848.34;5036163;28;20989;-70
2021/12/03 00:25:10;;;;;;;2.67;2.03;;;;;;;18.14;43.95;100850.16;5035933;28;20590;-70
2021/12/03 00:27:36;;;;;;;3.30;1.88;;;;;;;18.11;43.74;100846.84;5033814;28;20072;-69
2021/12/03 00:30:03;;;;;;;3.58;2.28;;;;;;;17.98;43.98;100836.00;5038846;28;20114;-70
2021/12/03 00:32:29;;;;;;;2.50;1.90;;;;;;;18.06;43.95;100843.06;5037023;28;20036;-70
2021/12/03 00:34:54;;;;;;;3.63;1.90;;;;;;;18.00;43.91;100838.47;5038817;28;20079;-70
2021/12/03 00:37:20;;;;;;;3.10;1.92;;;;;;;17.98;43.95;100841.28;5033842;28;20557;-70
2021/12/03 00:39:45;;;;;;;4.13;2.30;;;;;;;17.96;43.90;100848.53;5037362;28;20045;-69
2021/12/03 00:42:15;;;;;;;2.80;1.80;;;;;;;17.93;43.99;100851.47;5035473;28;20510;-70
2021/12/03 00:44:41;;;;;;;2.83;1.98;;;;;;;17.93;44.04;100840.13;5036561;28;20045;-70
2021/12/03 00:47:06;;;;;;;2.67;1.77;;;;;;;17.90;44.14;100846.53;5037615;28;20056;-70
2021/12/03 00:49:32;;;;;;;3.63;1.85;;;;;;;17.92;44.03;100859.53;5038134;28;20060;-70
2021/12/03 00:51:58;;;;;;;2.90;1.80;;;;;;;17.84;44.10;100849.03;5034450;28;20041;-70
2021/12/03 00:54:23;;;;;;;2.10;1.70;;;;;;;17.82;44.14;100846.56;5031551;28;20037;-70
2021/12/03 00:56:49;;;;;;;2.28;1.90;;;;;;;17.76;44.30;100844.56;5035684;28;20080;-70
2021/12/03 00:59:14;;;;;;;5.35;2.10;;;;;;;17.80;44.19;100854.63;5051725;28;20647;-70
2021/12/03 01:01:40;;;;;;;2.25;1.60;;;;;;;17.71;44.04;100833.72;5038806;28;20102;-69
2021/12/03 01:04:06;;;;;;;2.72;1.80;;;;;;;17.79;44.19;100842.44;5038250;28;20029;-70
2021/12/03 01:06:32;;;;;;;2.58;1.70;;;;;;;17.74;44.14;100851.81;5032315;28;20457;-70
2021/12/03 01:08:57;;;;;;;2.88;1.65;;;;;;;17.72;44.38;100857.25;5034963;28;20045;-71
2021/12/03 01:11:23;;;;;;;2.72;1.80;;;;;;;17.70;44.25;100851.34;5033241;28;20041;-70
2021/12/03 01:13:50;;;;;;;2.67;1.75;;;;;;;17.71;44.25;100857.41;5037550;28;20057;-70
2021/12/03 01:16:16;;;;;;;2.60;1.73;;;;;;;17.66;44.49;100857.88;5036768;28;20044;-70
2021/12/03 01:18:44;;;;;;;3.13;2.08;;;;;;;17.69;44.34;100856.75;5036466;28;20085;-70
2021/12/03 01:21:11;;;;;;;1.92;1.60;;;;;;;17.62;44.29;100845.22;5033230;28;20041;-70
2021/12/03 01:23:37;;;;;;;3.35;2.00;;;;;;;17.62;44.09;100859.22;5033680;28;20064;-70
2021/12/03 01:26:03;;;;;;;3.08;2.05;;;;;;;17.63;44.21;100845.06;5048579;28;20036;-70
2021/12/03 01:28:28;;;;;;;3.45;1.90;;;;;;;17.56;44.46;100841.41;5038301;28;20041;-69
2021/12/03 01:30:56;;;;;;;3.05;1.80;;;;;;;17.61;44.49;100843.59;5050859;28;20041;-70
2021/12/03 01:33:22;;;;;;;2.15;1.70;;;;;;;17.55;44.62;100842.41;5038720;28;20401;-70
2021/12/03 01:35:48;;;;;;;2.33;1.52;;;;;;;17.56;44.38;100848.50;5035495;28;20052;-70
2021/12/03 01:38:13;;;;;;;2.10;1.35;;;;;;;17.52;44.39;100840.94;5037409;28;20029;-70
2021/12/03 01:40:40;;;;;;;3.60;1.73;;;;;;;17.55;44.50;100844.22;5033350;28;20044;-70
2021/12/03 01:43:07;;;;;;;3.30;1.85;;;;;;;17.52;44.49;100846.19;5035490;28;20444;-70
2021/12/03 01:45:36;;;;;;;2.60;1.60;;;;;;;17.56;44.39;100843.22;5035722;28;20088;-70
2021/12/03 01:48:02;;;;;;;2.38;1.70;;;;;;;17.49;44.43;100843.91;5033977;28;20494;-70
2021/12/03 01:50:35;;;;;;;2.08;1.42;;;;;;;17.47;44.47;100839.78;5031615;28;20128;-70
2021/12/03 01:53:02;;;;;;;1.40;1.30;;;;;;;17.44;44.50;100832.22;5030402;28;20443;-70
2021/12/03 01:55:28;;;;;;;2.42;1.63;;;;;;;17.44;44.27;100832.22;5034110;28;20140;-70
2021/12/03 01:57:54;;;;;;;2.90;1.67;;;;;;;17.41;44.54;100843.88;5021747;28;20132;-70
2021/12/03 02:00:28;;;;;;;2.83;1.80;;;;;;;17.43;44.51;100844.56;5036544;28;20286;-70
2021/12/03 02:02:54;;;;;;;3.08;1.65;;;;;;;17.37;44.60;100842.56;5041345;28;20059;-70
2021/12/03 02:05:20;;;;;;;2.35;1.48;;;;;;;17.39;44.55;100847.66;5042407;28;20048;-70
2021/12/03 02:07:46;;;;;;;2.13;1.65;;;;;;;17.37;44.64;100847.81;5039253;28;20094;-70
2021/12/03 02:10:13;;;;;;;2.00;1.40;;;;;;;17.36;44.62;100848.81;5038701;28;20093;-70
2021/12/03 02:12:39;;;;;;;1.65;1.40;;;;;;;17.33;44.73;100851.78;5038553;28;20506;-71
2021/12/03 02:15:06;;;;;;;1.63;1.30;;;;;;;17.34;44.73;100845.53;5039785;28;20044;-70
2021/12/03 02:17:31;;;;;;;2.67;1.90;;;;;;;17.30;44.65;100848.66;5040905;28;20113;-70
2021/12/03 02:19:58;;;;;;;1.63;1.52;;;;;;;17.31;44.61;100853.75;5041097;28;20049;-70
2021/12/03 02:22:23;;;;;;;3.05;1.65;;;;;;;17.21;44.84;100847.78;5038057;28;20099;-70
2021/12/03 02:24:49;;;;;;;1.60;1.48;;;;;;;17.22;44.67;100852.88;5035494;28;20786;-70
2021/12/03 02:27:15;;;;;;;2.03;1.50;;;;;;;17.22;44.62;100845.00;5037905;28;20025;-70
2021/12/03 02:29:40;;;;;;;1.98;1.65;;;;;;;17.26;44.62;100844.69;5040958;28;20055;-70
2021/12/03 02:32:06;;;;;;;3.30;1.67;;;;;;;17.28;44.66;100850.63;5039900;28;20033;-70
2021/12/03 02:34:32;;;;;;;1.95;1.45;;;;;;;17.23;44.64;100845.81;5041283;28;20040;-70
2021/12/03 02:36:57;;;;;;;2.15;1.63;;;;;;;17.27;44.61;100852.44;5039484;28;20039;-70
2021/12/03 02:39:23;;;;;;;2.15;1.45;;;;;;;17.24;44.90;100851.94;5040734;28;20067;-70
2021/12/03 02:41:48;;;;;;;2.50;1.75;;;;;;;17.25;44.55;100850.94;5039859;28;20091;-70
2021/12/03 02:44:14;;;;;;;2.72;1.70;;;;;;;17.17;44.58;100852.56;5035814;28;20076;-70
2021/12/03 02:46:39;;;;;;;1.42;1.23;;;;;;;17.18;44.71;100848.13;5038211;28;20094;-70
2021/12/03 02:49:06;;;;;;;2.17;1.52;;;;;;;17.17;44.68;100838.59;5040907;28;20090;-70
2021/12/03 02:51:31;;;;;;;2.03;1.40;;;;;;;17.22;44.65;100839.75;5042759;28;20120;-70
2021/12/03 02:53:58;;;;;;;2.25;1.52;;;;;;;17.16;44.70;100842.19;5039031;28;20037;-70
2021/12/03 02:56:23;;;;;;;1.65;1.55;;;;;;;17.15;44.75;100838.75;5040296;28;20056;-70
2021/12/03 02:58:49;;;;;;;1.88;1.35;;;;;;;17.12;44.84;100848.78;5038443;28;20876;-70
2021/12/03 03:01:15;;;;;;;2.67;1.75;;;;;;;17.08;44.70;100836.94;5035565;28;20098;-70
2021/12/03 03:03:40;;;;;;;2.83;1.75;;;;;;;17.11;44.84;100840.06;5040307;28;20037;-70
2021/12/03 03:06:08;;;;;;;2.75;1.65;;;;;;;17.10;44.78;100832.34;5038798;28;20051;-70
2021/12/03 03:08:34;;;;;;;2.03;1.52;;;;;;;17.10;44.59;100833.16;5038346;28;20037;-70
2021/12/03 03:11:03;;;;;;;2.95;2.13;;;;;;;17.04;44.84;100817.16;5035111;28;20047;-70
2021/12/03 03:13:28;;;;;;;2.60;2.00;;;;;;;17.12;44.57;100817.19;5038465;28;20049;-71
2021/12/03 03:15:54;;;;;;;3.13;1.90;;;;;;;17.07;44.51;100809.81;5050657;28;20040;-70
2021/12/03 03:18:23;;;;;;;2.70;1.63;;;;;;;17.08;44.68;100819.34;5037411;28;20487;-70
2021/12/03 03:20:49;;;;;;;2.60;1.45;;;;;;;17.03;44.78;100808.47;5038424;28;20072;-70
2021/12/03 03:23:16;;;;;;;2.42;1.50;;;;;;;17.01;44.77;100813.06;5040160;28;20037;-70
2021/12/03 03:25:43;;;;;;;1.90;1.45;;;;;;;17.04;44.63;100810.09;5051958;28;20047;-71
2021/12/03 03:28:10;;;;;;;2.28;1.80;;;;;;;17.05;44.78;100811.75;5054514;28;20051;-70
2021/12/03 03:30:38;;;;;;;2.15;1.58;;;;;;;17.00;44.85;100811.41;5037155;28;20033;-70
2021/12/03 03:33:04;;;;;;;2.80;1.73;;;;;;;17.04;44.71;100809.28;5039836;28;20490;-70
2021/12/03 03:35:29;;;;;;;3.42;1.77;;;;;;;17.00;44.82;100803.53;5038285;28;20052;-70
2021/12/03 03:37:55;;;;;;;3.72;1.80;;;;;;;17.01;44.90;100799.09;5039158;28;20106;-70
2021/12/03 03:40:21;;;;;;;2.95;1.85;;;;;;;16.94;45.04;100795.47;5041813;28;20033;-70
2021/12/03 03:42:47;;;;;;;3.08;1.95;;;;;;;16.94;44.85;100795.47;5034241;28;20037;-70
2021/12/03 03:45:17;;;;;;;2.42;1.70;;;;;;;16.97;44.76;100789.88;5035807;28;20055;-70
2021/12/03 03:47:43;;;;;;;2.70;1.73;;;;;;;16.97;44.80;100781.97;5039082;28;20042;-70
2021/12/03 03:50:10;;;;;;;2.05;1.42;;;;;;;16.93;44.91;100773.59;5036124;28;20067;-70
2021/12/03 03:52:39;;;;;;;3.80;1.70;;;;;;;16.95;44.68;100773.44;5039246;28;20498;-70
2021/12/03 03:55:06;;;;;;;2.30;1.77;;;;;;;16.96;44.65;100767.19;5039449;28;20099;-70
2021/12/03 03:57:32;;;;;;;2.28;1.60;;;;;;;16.94;44.79;100771.78;5036857;28;20711;-70
2021/12/03 03:59:57;;;;;;;3.15;1.58;;;;;;;16.86;44.91;100770.78;5038326;28;20029;-70
2021/12/03 04:02:23;;;;;;;3.17;1.63;;;;;;;16.89;44.92;100769.66;5032660;28;20491;-70
2021/12/03 04:04:49;;;;;;;1.77;1.27;;;;;;;16.83;44.73;100765.00;5038826;28;20033;-69
2021/12/03 04:07:14;;;;;;;3.22;1.40;;;;;;;16.91;44.72;100767.69;5036750;28;20044;-70
2021/12/03 04:09:40;;;;;;;2.75;1.88;;;;;;;16.87;44.72;100758.44;5040487;28;20033;-70
2021/12/03 04:12:06;;;;;;;3.58;1.80;;;;;;;16.90;44.89;100758.16;5031407;28;20553;-69
2021/12/03 04:14:32;;;;;;;2.72;1.73;;;;;;;16.89;44.74;100764.41;5030489;28;20064;-70
2021/12/03 04:16:57;;;;;;;1.92;1.45;;;;;;;16.81;44.74;100748.59;5037887;28;20095;-70
2021/12/03 04:19:23;;;;;;;3.05;2.05;;;;;;;16.83;44.76;100757.94;5036538;28;20044;-70
2021/12/03 04:21:49;;;;;;;2.72;1.83;;;;;;;16.87;44.65;100763.69;5037016;28;20051;-69
2021/12/03 04:24:14;;;;;;;2.78;1.88;;;;;;;16.94;44.53;100762.09;5035039;28;20025;-70
2021/12/03 04:26:40;;;;;;;2.08;1.65;;;;;;;17.00;44.48;100757.97;5039076;28;20089;-70
2021/12/03 04:29:06;;;;;;;2.95;1.88;;;;;;;17.07;44.25;100756.38;5035615;28;20045;-70
2021/12/03 04:31:31;;;;;;;2.13;1.70;;;;;;;17.15;44.09;100761.63;5034610;28;20084;-69
2021/12/03 04:33:57;;;;;;;2.45;1.75;;;;;;;17.18;44.09;100742.88;5052180;28;20036;-70
2021/12/03 04:36:23;;;;;;;2.47;1.70;;;;;;;17.32;43.93;100760.63;5036558;28;20041;-70
2021/12/03 04:38:48;;;;;;;1.65;1.40;;;;;;;17.45;43.83;100755.72;5039660;28;20040;-69
2021/12/03 04:41:14;;;;;;;2.30;1.77;;;;;;;17.57;43.42;100755.34;5038805;28;20041;-70
2021/12/03 04:43:40;;;;;;;2.30;1.70;;;;;;;17.72;43.35;100756.34;5052956;28;20579;-70
2021/12/03 04:46:06;;;;;;;1.73;1.50;;;;;;;17.85;43.36;100747.94;5028711;28;20033;-70
2021/12/03 04:48:32;;;;;;;2.50;1.80;;;;;;;17.96;43.27;100755.50;5036766;28;20036;-70
2021/12/03 04:50:58;;;;;;;1.60;1.50;;;;;;;18.05;43.22;100749.19;5035947;28;20037;-70
2021/12/03 04:53:24;;;;;;;2.88;1.73;;;;;;;18.11;43.06;100749.31;5037207;28;20398;-70
2021/12/03 04:55:50;;;;;;;1.55;1.45;;;;;;;18.16;43.12;100746.22;5037743;28;20065;-69
2021/12/03 04:58:17;;;;;;;3.20;1.90;;;;;;;18.22;43.16;100749.97;5039835;28;20494;-70
2021/12/03 05:00:52;;;;;;;2.63;1.90;;;;;;;18.29;43.07;100749.09;5032639;28;20064;-70
2021/12/03 05:03:19;;;;;;;2.92;1.80;;;;;;;18.34;42.76;100745.97;5032799;28;20048;-70
2021/12/03 05:05:51;;;;;;;2.22;1.55;;;;;;;18.37;42.90;100746.44;5035756;28;20059;-70
2021/12/03 05:08:17;;;;;;;1.65;1.55;;;;;;;18.46;42.92;100746.38;5035446;28;20055;-70
2021/12/03 05:10:44;;;;;;;2.35;1.50;;;;;;;18.48;42.75;100732.03;5036581;28;20029;-70
2021/12/03 05:13:18;;;;;;;1.98;1.38;;;;;;;18.48;42.72;100725.94;5036381;28;20048;-69
2021/12/03 05:15:45;;;;;;;1.98;1.60;;;;;;;18.57;42.48;100731.00;5032559;28;20075;-70
2021/12/03 05:18:14;;;;;;;3.10;1.70;;;;;;;18.61;42.59;100718.28;5035166;28;20038;-70
2021/12/03 05:20:41;;;;;;;1.67;1.27;;;;;;;18.68;42.72;100722.75;5037471;28;20041;-70
2021/12/03 05:23:07;;;;;;;2.08;1.52;;;;;;;18.73;42.45;100709.03;5036695;28;20044;-70
2021/12/03 05:25:33;;;;;;;2.72;1.50;;;;;;;18.75;42.52;100714.13;5037561;28;20035;-70
2021/12/03 05:27:59;;;;;;;1.67;1.40;;;;;;;18.80;42.30;100717.06;5037305;28;20017;-70
2021/12/03 05:30:25;;;;;;;2.00;1.42;;;;;;;18.84;42.42;100716.50;5033168;28;20807;-70
2021/12/03 05:32:51;;;;;;;2.08;1.58;;;;;;;18.86;42.18;100719.00;5036376;28;20029;-70
2021/12/03 05:35:17;;;;;;;2.28;1.58;;;;;;;18.88;42.18;100714.38;5038168;28;20486;-70
2021/12/03 05:37:43;;;;;;;1.88;1.67;;;;;;;18.90;42.32;100713.19;5043448;28;20052;-70
2021/12/03 05:40:14;;;;;;;2.30;1.63;;;;;;;18.96;42.16;100707.19;5045227;28;20033;-70
2021/12/03 05:42:42;;;;;;;3.25;1.55;;;;;;;18.98;42.08;100713.13;5042187;28;20088;-69
2021/12/03 05:45:11;;;;;;;2.13;1.58;;;;;;;19.00;42.01;100705.84;5045106;28;20043;-70
2021/12/03 05:47:36;;;;;;;1.60;1.50;;;;;;;19.00;42.03;100716.41;5041729;28;20675;-70
2021/12/03 05:50:04;;;;;;;2.05;1.33;;;;;;;19.04;42.00;100714.25;5039837;28;20037;-70
2021/12/03 05:52:30;;;;;;;3.10;1.30;;;;;;;19.07;42.03;100715.72;5042862;28;20029;-70
2021/12/03 05:54:56;;;;;;;1.30;1.20;;;;;;;19.10;41.77;100713.53;5046253;28;20542;-70
2021/12/03 05:57:21;;;;;;;2.10;1.80;;;;;;;19.11;41.83;100706.44;5044372;28;20049;-70
2021/12/03 05:59:47;;;;;;;1.90;1.60;;;;;;;19.14;41.87;100703.44;5044045;28;20044;-70
2021/12/03 06:02:13;;;;;;;2.58;1.80;;;;;;;19.14;41.88;100714.00;5043152;28;20793;-70
2021/12/03 06:04:38;;;;;;;1.50;1.40;;;;;;;19.15;42.01;100716.44;5044142;28;20028;-70
2021/12/03 06:07:04;;;;;;;2.83;1.50;;;;;;;19.16;41.62;100704.06;5043925;28;20041;-70
2021/12/03 06:09:30;;;;;;;1.35;1.25;;;;;;;19.18;41.90;100710.00;5040689;28;20273;-70
2021/12/03 06:11:56;;;;;;;1.50;1.40;;;;;;;19.12;41.80;100692.25;5046104;28;20070;-70
2021/12/03 06:14:21;;;;;;;2.13;1.60;;;;;;;19.23;41.73;100697.09;5044237;28;20041;-70
2021/12/03 06:16:47;;;;;;;2.22;1.55;;;;;;;19.28;41.48;100700.03;5039793;28;20510;-70
2021/12/03 06:19:13;;;;;;;1.40;1.30;;;;;;;19.30;41.64;100704.13;5043467;28;20143;-70
2021/12/03 06:21:39;;;;;;;2.17;1.33;;;;;;;19.26;41.65;100699.38;5043123;28;20435;-70
2021/12/03 06:24:04;;;;;;;2.10;1.80;;;;;;;19.31;41.66;100697.00;5044676;28;20041;-70
2021/12/03 06:26:30;;;;;;;2.63;1.50;;;;;;;19.31;41.56;100695.19;5043690;28;20126;-70
2021/12/03 06:28:55;;;;;;;3.08;1.60;;;;;;;19.33;41.57;100706.41;5043720;28;20548;-70
2021/12/03 06:31:21;;;;;;;2.35;1.38;;;;;;;19.33;41.53;100702.94;5043160;28;20048;-70
2021/12/03 06:33:47;;;;;;;1.48;1.38;;;;;;;19.33;41.49;100705.56;5038513;28;20041;-70
2021/12/03 06:36:13;;;;;;;1.85;1.30;;;;;;;19.33;41.59;100703.75;5056007;28;20044;-70
2021/12/03 06:38:39;;;;;;;2.08;1.50;;;;;;;19.36;41.51;100707.84;5043481;28;20095;-70
2021/12/03 06:41:05;;;;;;;2.97;1.70;;;;;;;19.37;41.52;100714.78;5043950;28;20064;-70
2021/12/03 06:43:31;;;;;;;3.22;1.27;;;;;;;19.36;41.65;100696.47;5042077;28;20060;-70
2021/12/03 06:45:57;;;;;;;1.70;1.35;;;;;;;19.35;41.45;100706.22;5044108;28;20037;-70
2021/12/03 06:48:23;;;;;;;2.65;1.70;;;;;;;19.36;41.62;100699.09;5039187;28;20090;-70
2021/12/03 06:50:50;;;;;;;2.15;1.48;;;;;;;19.32;41.55;100694.19;5038929;28;20040;-70
2021/12/03 06:53:20;;;;;;;2.15;1.48;;;;;;;19.35;41.49;100697.47;5035044;28;20406;-69
2021/12/03 06:55:47;;;;;;;1.83;1.30;;;;;;;19.32;41.60;100694.19;5039266;28;20061;-70
2021/12/03 06:58:15;;;;;;;1.77;1.30;;;;;;;19.34;41.46;100694.00;5041650;28;20082;-70
2021/12/03 07:00:42;;;;;;;2.67;1.50;;;;;;;19.33;41.34;100687.91;5040682;28;20491;-70
2021/12/03 07:03:08;;;;;;;1.77;1.40;;;;;;;19.38;41.48;100700.56;5038491;28;20482;-70
2021/12/03 07:05:34;;;;;;;1.52;1.40;;;;;;;19.40;41.31;100698.59;5037163;28;20040;-70
2021/12/03 07:08:00;;;;;;;1.60;1.27;;;;;;;19.40;41.29;100697.78;5037916;28;20056;-69
2021/12/03 07:10:25;;;;;;;1.52;1.20;;;;;;;19.42;41.31;100688.66;5039203;28;20765;-70
2021/12/03 07:12:51;;;;;;;1.55;1.35;;;;;;;19.40;41.40;100677.47;5040180;28;20556;-70
2021/12/03 07:15:17;;;;;;;1.42;1.30;;;;;;;19.44;41.22;100675.28;5039906;28;20036;-70
2021/12/03 07:17:42;;;;;;;1.50;1.25;;;;;;;19.41;41.26;100670.38;5039551;28;20049;-70
2021/12/03 07:20:10;;;;;;;1.33;1.10;;;;;;;19.39;41.32;100674.97;5034668;28;20052;-70
2021/12/03 07:22:35;;;;;;;2.40;1.42;;;;;;;19.38;41.47;100678.63;5036714;28;20057;-70
2021/12/03 07:25:03;;;;;;;2.38;1.33;;;;;;;19.31;41.38;100666.16;5042601;28;20496;-70
2021/12/03 07:27:28;;;;;;;1.23;1.00;;;;;;;19.30;41.35;100672.44;5042981;28;20033;-70
2021/12/03 07:29:54;;;;;;;1.10;0.95;;;;;;;19.29;41.32;100675.25;5042138;28;20629;-70
2021/12/03 07:32:21;;;;;;;1.67;1.30;;;;;;;19.30;41.40;100675.06;5042840;28;20047;-69
2021/12/03 07:34:48;;;;;;;1.40;1.30;;;;;;;19.32;41.47;100675.72;5037647;28;20565;-69
2021/12/03 07:37:14;;;;;;;2.67;1.38;;;;;;;19.35;41.49;100673.72;5037494;28;20131;-69
2021/12/03 07:39:39;;;;;;;1.88;1.08;;;;;;;19.40;41.21;100663.44;5035126;28;21219;-68
2021/12/03 07:42:06;;;;;;;3.45;1.52;;;;;;;19.43;41.13;100669.19;5039641;28;20499;-69
2021/12/03 07:44:32;;;;;;;1.52;1.35;;;;;;;19.48;41.12;100677.38;5040976;28;20037;-69
2021/12/03 07:46:57;;;;;;;1.48;1.33;;;;;;;19.52;41.17;100675.19;5042408;28;20044;-69
2021/12/03 07:49:25;;;;;;;2.33;1.42;;;;;;;19.54;41.06;100668.75;5039640;28;20517;-68
2021/12/03 07:51:51;;;;;;;2.22;0.93;;;;;;;19.56;41.00;100658.81;5040868;28;20047;-69
2021/12/03 07:54:17;;;;;;;1.65;1.08;;;;;;;19.61;41.03;100667.03;5041981;28;20572;-69
2021/12/03 07:56:43;;;;;;;1.13;1.02;;;;;;;19.62;41.10;100654.66;5040962;28;20053;-69
2021/12/03 07:59:09;;;;;;;0.90;0.90;;;;;;;19.58;41.12;100642.81;5041600;28;20180;-69
2021/12/03 08:01:34;;;;;;;1.63;1.25;;;;;;;19.58;41.21;100648.91;5037735;28;20550;-69
2021/12/03 08:04:00;;;;;;;2.53;1.33;;;;;;;19.56;41.27;100642.97;5037509;28;20048;-69
2021/12/03 08:06:26;;;;;;;2.00;1.45;;;;;;;19.52;41.22;100632.94;5039989;28;20095;-69
2021/12/03 08:08:51;;;;;;;2.65;1.30;;;;;;;19.47;41.11;100628.19;5018117;28;20037;-70
2021/12/03 08:11:17;;;;;;;2.10;1.27;;;;;;;19.48;41.19;100629.84;5035511;28;20048;-70
2021/12/03 08:13:42;;;;;;;1.70;0.88;;;;;;;19.42;41.37;100629.75;5037743;28;20052;-69
2021/12/03 08:16:09;;;;;;;1.20;1.10;;;;;;;19.43;41.38;100639.31;5036525;28;20040;-70
2021/12/03 08:18:35;;;;;;;1.90;1.23;;;;;;;19.39;41.15;100633.59;5039228;28;20098;-69
2021/12/03 08:21:02;;;;;;;2.17;1.30;;;;;;;19.39;41.27;100643.28;5037081;28;20045;-69
2021/12/03 08:23:28;;;;;;;1.23;1.13;;;;;;;19.37;41.20;100632.91;5037885;28;20060;-70
2021/12/03 08:25:54;;;;;;;3.05;1.23;;;;;;;19.36;41.45;100635.75;5032469;28;20763;-69
2021/12/03 08:28:20;;;;;;;2.00;1.17;;;;;;;19.37;41.26;100634.75;5032820;28;20106;-70
2021/12/03 08:30:46;;;;;;;1.55;1.00;;;;;;;19.40;41.33;100629.13;5033349;28;20048;-70
2021/12/03 08:33:11;;;;;;;1.77;1.00;;;;;;;19.47;41.21;100627.38;5036230;28;20045;-70
2021/12/03 08:35:37;;;;;;;1.27;0.95;;;;;;;19.51;40.99;100618.91;5032338;28;21603;-69
2021/12/03 08:38:03;;;;;;;1.95;1.00;;;;;;;19.59;40.97;100629.44;5035921;28;20491;-70
2021/12/03 08:40:29;;;;;;;2.47;1.00;;;;;;;19.64;40.93;100630.69;5035753;28;20041;-69
2021/12/03 08:42:55;;;;;;;2.53;1.13;;;;;;;19.68;40.98;100618.75;5037495;28;20040;-69
2021/12/03 08:45:21;;;;;;;2.15;1.20;;;;;;;19.71;40.77;100610.44;5035513;28;20122;-69
2021/12/03 08:47:51;;;;;;;3.05;1.30;;;;;;;19.72;40.92;100609.44;5036904;28;20147;-67
2021/12/03 08:50:27;;;;;;;0.90;0.90;;;;;;;19.70;40.98;100609.63;5038779;28;20056;-68
2021/12/03 08:55:35;;;;;;;1.65;1.15;;;;;;;19.66;41.13;100611.00;5038399;28;20035;-69
2021/12/03 08:58:00;;;;;;;1.58;1.00;;;;;;;19.61;41.04;100608.94;5039372;28;20460;-69
2021/12/03 09:00:26;;;;;;;1.98;1.10;;;;;;;19.57;41.32;100606.84;5033232;28;20499;-70
2021/12/03 09:02:52;;;;;;;2.25;1.30;;;;;;;19.59;41.29;100610.94;5036448;28;20039;-69
2021/12/03 09:05:17;;;;;;;1.75;1.10;;;;;;;19.57;41.27;100602.38;5037256;28;20041;-69
2021/12/03 09:07:44;;;;;;;1.55;1.02;;;;;;;19.61;41.24;100597.53;5039049;28;20039;-69
2021/12/03 09:10:13;;;;;;;0.80;0.80;;;;;;;19.59;41.05;100589.81;5040160;28;20079;-69
2021/12/03 09:12:39;;;;;;;1.55;1.02;;;;;;;19.60;41.13;100594.09;5041464;28;20049;-69
2021/12/03 09:15:10;;;;;;;1.70;1.38;;;;;;;19.60;41.18;100593.25;5040179;28;20025;-69
2021/12/03 09:20:21;;;;;;;1.27;0.98;;;;;;;19.65;41.07;100590.88;5041101;28;20157;-70
2021/12/03 09:22:52;;;;;;;1.38;1.02;;;;;;;19.59;41.15;100579.25;5036876;28;20047;-69
2021/12/03 09:25:33;;;;;;;1.08;0.85;;;;;;;19.68;41.06;100579.13;5030995;28;20044;-69
2021/12/03 09:28:02;;;;;;;1.15;0.80;;;;;;;19.72;41.05;100586.50;5036250;28;20116;-69
2021/12/03 09:30:35;;;;;;;1.92;1.67;;;;;;;19.75;40.96;100580.00;5038048;28;20049;-70
2021/12/03 09:33:02;;;;;;;2.28;1.30;;;;;;;19.78;41.00;100571.75;5032269;28;20462;-70
2021/12/03 09:35:30;;;;;;;2.28;1.10;;;;;;;19.75;41.01;100575.56;5034345;28;20029;-69
2021/12/03 09:37:56;;;;;;;2.28;1.33;;;;;;;19.73;41.09;100577.56;5035940;28;20396;-69
2021/12/03 09:40:24;;;;;;;2.67;1.20;;;;;;;19.71;41.10;100579.56;5028719;28;20506;-69
2021/12/03 09:42:50;;;;;;;2.33;1.08;;;;;;;19.71;41.17;100568.19;5038044;28;20442;-70
2021/12/03 09:45:16;;;;;;;1.02;0.80;;;;;;;19.65;41.14;100568.94;5036583;28;20029;-70
2021/12/03 09:47:42;;;;;;;1.73;1.17;;;;;;;19.60;41.21;100572.94;5034286;28;20087;-70
2021/12/03 09:50:13;;;;;;;2.63;1.27;;;;;;;19.57;41.36;100557.47;5033262;28;20200;-70
2021/12/03 09:55:11;;;;;;;;;;;;;;;19.52;41.37;100553.69;5037303;28;20136;-70
2021/12/03 09:57:41;;;;;;;0.75;0.57;;;;;;;19.51;41.20;100552.06;5036574;28;19960;-69
2021/12/03 10:03:00;;;;;;;2.78;1.15;;;;;;;19.47;41.40;100543.69;5038602;28;20487;-70
2021/12/03 10:15:48;;;;;;;2.70;1.42;;;;;;;19.40;41.44;100524.31;5036093;28;20684;-69
2021/12/03 10:18:31;;;;;;;1.77;1.33;;;;;;;19.38;41.39;100502.53;5035705;28;20036;-69
2021/12/03 10:21:16;;;;;;;2.17;1.42;;;;;;;19.42;41.22;100500.38;5034626;28;20041;-69
2021/12/03 10:29:24;;;;;;;1.77;1.35;;;;;;;19.40;41.32;100482.06;5038368;28;20039;-69
2021/12/03 10:47:02;;;;;;;2.88;1.10;;;;;;;19.40;41.34;100458.31;5035141;28;20085;-70
2021/12/03 10:57:45;;;;;;;2.88;1.15;;;;;;;19.58;41.22;100448.19;5039320;28;20055;-69
2021/12/03 11:29:48;;;;;;;3.47;1.77;;;;;;;19.53;41.31;100383.66;5039907;28;20044;-69
2021/12/03 12:40:50;;;;;;;2.70;1.73;;;;;;;19.52;41.24;100239.44;5040393;28;20577;-69
2021/12/03 13:35:55;;;;;;;2.13;1.52;;;;;;;19.80;40.82;100191.91;5024037;28;20093;-68
2021/12/03 14:02:27;;;;;;;2.47;1.42;;;;;;;19.57;41.00;100160.50;5037142;28;20178;-68
2021/12/03 14:10:20;;;;;;;2.35;1.70;;;;;;;19.53;41.13;100148.63;5039761;28;20573;-69
2021/12/03 14:54:16;;;;;;;2.80;1.83;;;;;;;19.67;40.91;100139.00;5031491;28;20132;-69
2021/12/03 14:56:44;;;;;;;3.97;1.90;;;;;;;19.57;40.77;100124.34;5034280;28;20059;-69
2021/12/03 14:59:27;;;;;;;2.30;1.70;;;;;;;19.62;40.79;100123.75;5048024;28;20032;-69
2021/12/03 15:02:05;;;;;;;1.83;1.60;;;;;;;19.59;40.75;100127.59;5048250;28;20048;-69
2021/12/03 15:09:43;;;;;;;3.45;1.67;;;;;;;19.55;40.85;100136.09;5032330;28;20037;-69
2021/12/03 15:33:52;;;;;;;2.47;1.73;;;;;;;19.70;40.59;100115.66;5039896;28;20040;-68
2021/12/03 16:08:22;;;;;;;2.67;1.70;;;;;;;19.43;40.78;100104.09;5017123;28;20041;-68
2021/12/03 16:10:58;;;;;;;3.33;1.70;;;;;;;19.43;40.62;100098.00;5028701;28;20128;-69
2021/12/03 16:17:03;;;;;;;3.67;1.83;;;;;;;19.44;40.63;100102.28;5042679;28;20636;-68
2021/12/03 16:46:08;;;;;;;2.17;1.58;;;;;;;19.39;40.87;100092.31;5038610;28;20035;-69
2021/12/03 16:53:49;;;;;;;1.92;1.70;;;;;;;19.35;40.65;100093.69;5053284;28;20045;-67
2021/12/03 16:56:18;;;;;;;3.40;2.20;;;;;;;19.43;40.44;100093.53;5031144;28;20063;-68
2021/12/03 16:58:45;;;;;;;2.53;1.80;;;;;;;19.38;40.85;100097.75;5034166;28;20037;-68
2021/12/03 17:22:08;;;;;;;4.10;2.15;;;;;;;19.33;41.03;100100.97;5033491;28;20044;-68
2021/12/03 17:53:45;;;;;;;2.00;1.80;;;;;;;19.29;40.76;100070.72;5028195;28;20603;-68
2021/12/03 17:56:12;;;;;;;2.38;1.70;;;;;;;19.34;40.89;100078.84;5028351;28;20041;-68
2021/12/03 17:58:43;;;;;;;2.22;1.98;;;;;;;19.33;40.89;100083.31;5031731;28;20049;-68
2021/12/03 18:01:20;;;;;;;2.95;1.98;;;;;;;19.37;40.69;100078.47;5029432;28;20045;-68
2021/12/03 18:04:00;;;;;;;3.78;2.00;;;;;;;19.38;40.62;100082.72;5047126;28;20091;-68
2021/12/03 18:43:07;;;;;;;2.92;2.25;;;;;;;19.43;40.76;100071.63;5031431;28;20040;-68
2021/12/03 18:44:13;;;;;;;2.33;1.98;;;;;;;19.16;40.91;100060.88;5036517;28;20051;-67
2021/12/03 18:52:23;;;;;;;2.10;1.83;;;;;;;19.06;40.82;100059.59;5035036;28;20032;-68
2021/12/03 18:55:30;;;;;;;2.80;1.95;;;;;;;18.97;41.04;100040.47;5031463;28;20069;-68
2021/12/03 18:57:45;;;;;;;3.40;1.90;;;;;;;19.00;40.86;100059.34;5030163;28;20065;-67
2021/12/03 19:00:15;;;;;;;2.22;1.90;;;;;;;18.93;40.75;100047.94;5053669;28;20144;-67